createdAt,value
2022-10-23T00:00:42.354Z,92.50
2022-10-23T00:03:08.786Z,92.44
2022-10-23T00:05:40.566Z,92.60
2022-10-23T00:08:07.796Z,92.76
2022-10-23T00:10:35.251Z,92.70
2022-10-23T00:13:02.617Z,92.77
2022-10-23T00:15:29.021Z,92.66
2022-10-23T00:17:55.552Z,92.68
2022-10-23T00:20:22.434Z,92.65
2022-10-23T00:22:49.588Z,92.74
2022-10-23T00:25:16.401Z,92.83
2022-10-23T00:27:43.415Z,93.18
2022-10-23T00:30:11.320Z,93.33
2022-10-23T00:32:38.377Z,93.55
2022-10-23T00:35:05.653Z,93.29
2022-10-23T00:37:32.293Z,93.24
2022-10-23T00:39:58.907Z,93.46
2022-10-23T00:42:25.646Z,93.61
2022-10-23T00:44:52.040Z,93.53
2022-10-23T00:47:18.566Z,93.55
2022-10-23T00:49:44.972Z,93.62
2022-10-23T00:52:13.900Z,93.53
2022-10-23T00:54:43.204Z,93.74
2022-10-23T00:57:15.009Z,93.54
2022-10-23T00:59:41.741Z,93.54
2022-10-23T01:02:08.337Z,93.57
2022-10-23T01:04:36.175Z,93.66
2022-10-23T01:07:27.354Z,93.62
2022-10-23T01:10:06.215Z,93.75
2022-10-23T01:12:44.335Z,93.90
2022-10-23T01:15:13.687Z,93.97
2022-10-23T01:17:47.607Z,93.92
2022-10-23T01:20:35.616Z,94.18
2022-10-23T01:23:11.749Z,94.17
2022-10-23T01:26:04.507Z,93.69
2022-10-23T01:28:36.494Z,93.74
2022-10-23T01:31:09.464Z,93.45
2022-10-23T01:33:42.797Z,93.39
2022-10-23T01:36:14.488Z,93.39
2022-10-23T01:38:58.593Z,93.49
2022-10-23T01:41:35.654Z,93.24
2022-10-23T01:44:11.124Z,93.53
2022-10-23T01:46:37.584Z,93.31
2022-10-23T01:49:06.715Z,93.62
2022-10-23T01:51:36.735Z,93.72
2022-10-23T01:54:07.240Z,93.73
2022-10-23T01:56:37.906Z,93.56
2022-10-23T01:59:10.607Z,93.27
2022-10-23T02:01:41.924Z,93.12
2022-10-23T02:04:12.679Z,93.31
2022-10-23T02:06:39.497Z,93.46
2022-10-23T02:09:07.033Z,93.38
2022-10-23T02:11:41.184Z,93.34
2022-10-23T02:14:20.426Z,93.56
2022-10-23T02:17:03.197Z,93.32
2022-10-23T02:19:41.341Z,93.37
2022-10-23T02:22:12.548Z,93.17
2022-10-23T02:24:50.268Z,93.24
2022-10-23T02:27:26.153Z,93.03
2022-10-23T02:29:59.880Z,92.94
2022-10-23T02:32:28.814Z,93.12
2022-10-23T02:34:56.038Z,93.14
2022-10-23T02:39:54.604Z,92.63
2022-10-23T02:42:33.754Z,92.43
2022-10-23T02:45:07.915Z,92.47
2022-10-23T02:47:59.642Z,92.29
2022-10-23T02:50:33.861Z,92.59
2022-10-23T02:53:16.080Z,92.90
2022-10-23T02:55:47.649Z,93.04
2022-10-23T02:58:32.656Z,92.98
2022-10-23T03:01:21.599Z,92.81
2022-10-23T03:03:58.191Z,92.69
2022-10-23T03:06:25.643Z,92.55
2022-10-23T03:08:58.891Z,92.40
2022-10-23T03:11:26.135Z,92.38
2022-10-23T03:13:52.762Z,92.29
2022-10-23T03:16:19.221Z,92.58
2022-10-23T03:18:45.901Z,91.98
2022-10-23T03:21:12.439Z,92.33
2022-10-23T03:23:38.800Z,92.49
2022-10-23T03:26:05.367Z,92.61
2022-10-23T03:28:32.025Z,92.73
2022-10-23T03:30:58.424Z,93.07
2022-10-23T03:33:24.838Z,92.98
2022-10-23T03:35:51.226Z,92.93
2022-10-23T03:38:17.644Z,92.99
2022-10-23T03:40:44.230Z,93.04
2022-10-23T03:43:10.668Z,93.25
2022-10-23T03:45:38.451Z,93.01
2022-10-23T03:48:08.245Z,93.17
2022-10-23T03:50:35.538Z,93.37
2022-10-23T03:53:02.077Z,93.69
2022-10-23T03:55:29.352Z,93.92
2022-10-23T03:57:55.915Z,93.86
2022-10-23T04:00:22.449Z,93.84
2022-10-23T04:02:49.177Z,93.80
2022-10-23T04:05:15.652Z,93.86
2022-10-23T04:07:42.058Z,93.84
2022-10-23T04:10:08.899Z,93.76
2022-10-23T04:12:35.652Z,93.53
2022-10-23T04:15:02.177Z,93.15
2022-10-23T04:19:59.959Z,93.43
2022-10-23T04:22:28.424Z,93.24
2022-10-23T04:24:55.552Z,93.44
2022-10-23T04:27:22.274Z,93.57
2022-10-23T04:29:49.149Z,93.44
2022-10-23T04:32:15.604Z,93.39
2022-10-23T04:34:42.984Z,93.59
2022-10-23T04:37:09.618Z,93.54
2022-10-23T04:39:36.033Z,93.64
2022-10-23T04:42:02.864Z,93.72
2022-10-23T04:44:29.387Z,93.42
2022-10-23T04:46:55.781Z,93.56
2022-10-23T04:49:22.286Z,93.93
2022-10-23T04:51:48.826Z,94.07
2022-10-23T04:54:15.247Z,94.06
2022-10-23T04:56:41.791Z,93.76
2022-10-23T04:59:08.651Z,94.12
2022-10-23T05:01:35.692Z,94.12
2022-10-23T05:04:02.258Z,94.03
2022-10-23T05:06:28.674Z,94.01
2022-10-23T05:08:56.031Z,93.83
2022-10-23T05:11:22.472Z,93.90
2022-10-23T05:13:48.983Z,94.04
2022-10-23T05:16:45.508Z,93.88
2022-10-23T05:19:21.947Z,93.84
2022-10-23T05:21:55.722Z,93.72
2022-10-23T05:24:23.510Z,93.72
2022-10-23T05:26:52.813Z,93.51
2022-10-23T05:29:20.415Z,93.29
2022-10-23T05:31:50.125Z,93.16
2022-10-23T05:34:20.605Z,93.14
2022-10-23T05:36:47.309Z,93.58
2022-10-23T05:39:13.815Z,93.53
2022-10-23T05:41:40.778Z,93.30
2022-10-23T05:44:07.215Z,93.12
2022-10-23T05:46:33.925Z,92.84
2022-10-23T05:49:00.391Z,92.66
2022-10-23T05:51:26.866Z,92.64
2022-10-23T05:53:55.243Z,92.58
2022-10-23T05:56:21.654Z,92.26
2022-10-23T05:58:49.227Z,92.14
2022-10-23T06:01:15.857Z,92.17
2022-10-23T06:03:42.418Z,92.15
2022-10-23T06:06:08.909Z,92.14
2022-10-23T06:08:35.608Z,92.05
2022-10-23T06:11:19.956Z,91.83
2022-10-23T06:13:48.443Z,91.87
2022-10-23T06:16:18.671Z,91.50
2022-10-23T06:18:46.052Z,91.22
2022-10-23T06:21:13.251Z,91.14
2022-10-23T06:23:41.627Z,91.09
2022-10-23T06:26:09.611Z,90.83
2022-10-23T06:28:36.484Z,90.46
2022-10-23T06:32:34.844Z,90.10
2022-10-23T06:35:01.245Z,90.06
2022-10-23T06:37:27.671Z,90.01
2022-10-23T06:39:54.079Z,89.91
2022-10-23T06:42:20.516Z,89.82
2022-10-23T06:44:48.317Z,89.69
2022-10-23T06:47:15.129Z,89.53
2022-10-23T06:49:41.560Z,89.54
2022-10-23T06:52:14.382Z,89.17
2022-10-23T06:54:49.610Z,88.97
2022-10-23T06:57:15.991Z,88.00
2022-10-23T06:59:42.351Z,87.59
2022-10-23T07:02:09.649Z,87.62
2022-10-23T07:04:36.063Z,87.83
2022-10-23T07:07:02.535Z,87.90
2022-10-23T07:09:29.070Z,87.76
2022-10-23T07:11:55.595Z,87.92
2022-10-23T07:14:22.102Z,87.64
2022-10-23T07:16:48.679Z,87.55
2022-10-23T07:19:15.011Z,87.46
2022-10-23T07:21:41.441Z,87.27
2022-10-23T07:24:08.085Z,86.80
2022-10-23T07:26:34.454Z,86.81
2022-10-23T07:29:00.970Z,86.55
2022-10-23T07:31:28.303Z,86.08
2022-10-23T07:33:55.075Z,85.47
2022-10-23T07:36:21.672Z,84.62
2022-10-23T07:38:48.097Z,84.24
2022-10-23T07:41:15.386Z,83.62
2022-10-23T07:43:44.018Z,83.12
2022-10-23T07:46:10.540Z,82.74
2022-10-23T07:48:38.579Z,81.94
2022-10-23T07:51:08.464Z,80.92
2022-10-23T07:53:35.907Z,79.52
2022-10-23T07:56:04.711Z,78.68
2022-10-23T07:58:31.144Z,77.84
2022-10-23T08:01:01.444Z,77.46
2022-10-23T08:03:30.464Z,75.94
2022-10-23T08:05:57.783Z,75.37
2022-10-23T08:08:25.854Z,74.43
2022-10-23T08:10:54.521Z,75.26
2022-10-23T08:13:22.406Z,74.63
2022-10-23T08:15:51.659Z,74.85
2022-10-23T08:18:18.914Z,74.17
2022-10-23T08:20:48.081Z,74.13
2022-10-23T08:23:18.458Z,74.43
2022-10-23T08:25:46.370Z,75.39
2022-10-23T08:28:12.889Z,74.84
2022-10-23T08:30:39.402Z,74.02
2022-10-23T08:33:06.832Z,74.20
2022-10-23T08:35:38.081Z,74.83
2022-10-23T08:38:05.632Z,74.45
2022-10-23T08:40:33.334Z,74.44
2022-10-23T08:43:16.009Z,74.61
2022-10-23T08:45:50.835Z,74.81
2022-10-23T08:48:30.151Z,74.44
2022-10-23T08:51:02.658Z,74.91
2022-10-23T08:54:05.430Z,75.10
2022-10-23T08:56:35.949Z,75.11
2022-10-23T08:59:22.538Z,75.11
2022-10-23T09:01:54.811Z,74.54
2022-10-23T09:04:21.399Z,74.58
2022-10-23T09:07:20.031Z,74.08
2022-10-23T09:10:25.649Z,73.05
2022-10-23T09:12:52.198Z,70.75
2022-10-23T09:15:31.368Z,69.11
2022-10-23T09:18:02.405Z,70.17
2022-10-23T09:20:34.278Z,68.84
2022-10-23T09:23:12.624Z,67.27
2022-10-23T09:25:40.512Z,68.48
2022-10-23T09:28:13.141Z,70.30
2022-10-23T09:30:42.389Z,69.09
2022-10-23T09:33:16.186Z,69.96
2022-10-23T09:35:59.541Z,70.99
2022-10-23T09:38:35.294Z,70.46
2022-10-23T09:41:13.002Z,69.65
2022-10-23T09:43:39.451Z,68.73
2022-10-23T09:46:07.446Z,69.10
2022-10-23T09:48:34.496Z,69.62
2022-10-23T09:51:03.667Z,69.51
2022-10-23T09:53:47.254Z,70.11
2022-10-23T09:56:24.700Z,69.64
2022-10-23T09:59:01.118Z,68.75
2022-10-23T10:01:33.554Z,68.76
2022-10-23T10:04:00.047Z,69.57
2022-10-23T10:06:29.855Z,70.89
2022-10-23T10:09:07.636Z,70.46
2022-10-23T10:11:47.762Z,70.67
2022-10-23T10:14:14.189Z,70.67
2022-10-23T10:16:56.997Z,70.63
2022-10-23T10:19:42.407Z,70.31
2022-10-23T10:22:16.725Z,70.44
2022-10-23T10:25:08.559Z,70.70
2022-10-23T10:28:00.562Z,70.84
2022-10-23T10:30:36.910Z,71.07
2022-10-23T10:33:16.706Z,71.28
2022-10-23T10:35:49.735Z,71.02
2022-10-23T10:38:18.875Z,71.17
2022-10-23T10:40:58.878Z,70.87
2022-10-23T10:43:44.320Z,70.62
2022-10-23T10:46:19.915Z,70.81
2022-10-23T10:48:57.124Z,70.91
2022-10-23T10:51:33.838Z,70.93
2022-10-23T10:54:06.300Z,70.54
2022-10-23T10:56:41.797Z,70.70
2022-10-23T10:59:18.900Z,70.58
2022-10-23T11:01:51.348Z,70.36
2022-10-23T11:04:37.077Z,70.31
2022-10-23T11:07:09.536Z,69.91
2022-10-23T11:09:36.278Z,69.47
2022-10-23T11:12:02.818Z,69.60
2022-10-23T11:14:33.034Z,69.44
2022-10-23T11:17:11.984Z,69.88
2022-10-23T11:19:59.068Z,70.24
2022-10-23T11:22:46.577Z,69.93
2022-10-23T11:25:41.187Z,70.23
2022-10-23T11:28:45.531Z,70.35
2022-10-23T11:31:55.031Z,72.82
2022-10-23T11:34:43.919Z,74.56
2022-10-23T11:37:17.036Z,75.81
2022-10-23T11:40:00.425Z,75.02
2022-10-23T11:42:32.127Z,74.91
2022-10-23T11:44:58.643Z,74.64
2022-10-23T11:47:40.380Z,74.31
2022-10-23T11:50:07.292Z,74.60
2022-10-23T11:53:09.241Z,73.50
2022-10-23T11:55:39.511Z,71.75
2022-10-23T11:58:15.043Z,70.58
2022-10-23T12:00:53.870Z,69.76
2022-10-23T12:03:30.570Z,70.23
2022-10-23T12:06:04.354Z,70.45
2022-10-23T12:08:35.250Z,69.52
2022-10-23T12:11:03.131Z,68.96
2022-10-23T12:13:42.090Z,69.07
2022-10-23T12:16:08.619Z,69.09
2022-10-23T12:18:46.650Z,69.16
2022-10-23T12:21:18.408Z,69.28
2022-10-23T12:23:48.422Z,69.52
2022-10-23T12:26:23.016Z,69.07
2022-10-23T12:28:54.606Z,69.65
2022-10-23T12:31:20.967Z,69.47
2022-10-23T12:34:09.421Z,69.14
2022-10-23T12:37:03.632Z,69.41
2022-10-23T12:39:39.130Z,68.45
2022-10-23T12:42:20.711Z,68.97
2022-10-23T12:44:58.403Z,69.38
2022-10-23T12:47:25.148Z,69.23
2022-10-23T12:49:52.353Z,69.56
2022-10-23T12:52:21.060Z,69.63
2022-10-23T12:54:50.687Z,69.69
2022-10-23T12:57:26.403Z,69.86
2022-10-23T13:00:12.707Z,69.77
2022-10-23T13:02:39.211Z,69.90
2022-10-23T13:05:08.026Z,69.89
2022-10-23T13:07:38.197Z,70.32
2022-10-23T13:10:05.658Z,70.27
2022-10-23T13:12:38.514Z,70.67
2022-10-23T13:15:07.916Z,70.61
2022-10-23T13:17:42.755Z,70.87
2022-10-23T13:20:18.641Z,70.82
2022-10-23T13:22:47.974Z,71.11
2022-10-23T13:25:34.858Z,71.19
2022-10-23T13:28:13.144Z,71.32
2022-10-23T13:30:42.991Z,71.23
2022-10-23T13:33:23.250Z,71.52
2022-10-23T13:35:57.874Z,71.45
2022-10-23T13:38:32.081Z,71.58
2022-10-23T13:41:00.387Z,71.50
2022-10-23T13:43:27.740Z,71.34
2022-10-23T13:45:54.268Z,71.27
2022-10-23T13:48:21.013Z,71.50
2022-10-23T13:50:47.637Z,71.44
2022-10-23T13:53:14.681Z,71.33
2022-10-23T13:55:44.097Z,71.57
2022-10-23T13:58:11.134Z,71.86
2022-10-23T14:00:38.708Z,71.79
2022-10-23T14:03:05.385Z,71.88
2022-10-23T14:05:32.245Z,71.88
2022-10-23T14:07:58.638Z,71.98
2022-10-23T14:10:27.026Z,72.29
2022-10-23T14:12:54.961Z,72.29
2022-10-23T14:15:21.927Z,72.02
2022-10-23T14:17:48.473Z,72.09
2022-10-23T14:20:17.275Z,71.96
2022-10-23T14:22:45.312Z,71.83
2022-10-23T14:25:12.065Z,72.06
2022-10-23T14:27:38.409Z,72.19
2022-10-23T14:30:05.701Z,72.42
2022-10-23T14:32:32.274Z,72.53
2022-10-23T14:34:58.850Z,72.26
2022-10-23T14:37:25.260Z,72.37
2022-10-23T14:39:51.640Z,72.57
2022-10-23T14:42:18.252Z,72.79
2022-10-23T14:44:45.057Z,72.53
2022-10-23T14:47:11.729Z,72.61
2022-10-23T14:49:40.085Z,72.90
2022-10-23T14:52:07.277Z,73.01
2022-10-23T14:54:35.133Z,73.26
2022-10-23T14:57:02.105Z,73.22
2022-10-23T14:59:28.696Z,73.28
2022-10-23T15:01:55.123Z,73.47
2022-10-23T15:04:21.719Z,73.80
2022-10-23T15:06:48.161Z,73.96
2022-10-23T15:09:15.492Z,74.33
2022-10-23T15:11:42.380Z,74.30
2022-10-23T15:14:08.785Z,74.42
2022-10-23T15:16:41.028Z,74.72
2022-10-23T15:19:12.124Z,74.37
2022-10-23T15:21:42.097Z,74.56
2022-10-23T15:24:08.567Z,74.67
2022-10-23T15:26:35.009Z,74.87
2022-10-23T15:29:02.528Z,75.48
2022-10-23T15:31:29.152Z,76.32
2022-10-23T15:33:59.758Z,76.69
2022-10-23T15:36:26.608Z,76.60
2022-10-23T15:38:53.122Z,76.38
2022-10-23T15:41:29.677Z,76.52
2022-10-23T15:43:56.160Z,76.43
2022-10-23T15:46:22.602Z,76.62
2022-10-23T15:48:49.077Z,76.82
2022-10-23T15:51:15.782Z,76.61
2022-10-23T15:53:42.311Z,76.96
2022-10-23T15:56:08.757Z,77.21
2022-10-23T15:58:35.243Z,77.81
2022-10-23T16:01:06.248Z,78.29
2022-10-23T16:03:33.983Z,78.15
2022-10-23T16:06:04.629Z,78.23
2022-10-23T16:08:31.063Z,78.66
2022-10-23T16:10:59.547Z,79.03
2022-10-23T16:13:26.873Z,79.80
2022-10-23T16:15:54.051Z,79.58
2022-10-23T16:18:21.988Z,80.21
2022-10-23T16:20:50.928Z,82.86
2022-10-23T16:23:18.022Z,84.03
2022-10-23T16:25:46.321Z,84.35
2022-10-23T16:28:12.806Z,85.65
2022-10-23T16:30:42.854Z,85.72
2022-10-23T16:33:10.067Z,86.25
2022-10-23T16:35:37.030Z,85.70
2022-10-23T16:38:04.351Z,86.55
2022-10-23T16:40:31.644Z,87.02
2022-10-23T16:42:58.531Z,87.38
2022-10-23T16:45:25.187Z,88.33
2022-10-23T16:47:51.624Z,91.04
2022-10-23T16:50:18.181Z,92.23
2022-10-23T16:52:44.980Z,92.90
2022-10-23T16:55:11.768Z,93.39
2022-10-23T16:57:38.127Z,93.92
2022-10-23T17:00:06.088Z,94.21
2022-10-23T17:02:32.901Z,94.75
2022-10-23T17:04:59.684Z,95.04
2022-10-23T17:07:26.223Z,95.21
2022-10-23T17:09:52.593Z,94.94
2022-10-23T17:12:18.991Z,94.29
2022-10-23T17:14:45.422Z,94.06
2022-10-23T17:17:11.921Z,94.25
2022-10-23T17:19:45.469Z,94.37
2022-10-23T17:22:13.165Z,94.18
2022-10-23T17:24:40.631Z,94.16
2022-10-23T17:27:07.191Z,93.95
2022-10-23T17:29:35.963Z,93.83
2022-10-23T17:32:02.740Z,93.70
2022-10-23T17:34:29.273Z,93.97
2022-10-23T17:36:56.351Z,94.05
2022-10-23T17:39:26.257Z,93.90
2022-10-23T17:41:53.329Z,94.04
2022-10-23T17:44:20.091Z,93.89
2022-10-23T17:46:49.379Z,93.73
2022-10-23T17:49:16.956Z,93.67
2022-10-23T17:51:43.369Z,93.31
2022-10-23T17:57:35.050Z,93.29
2022-10-23T18:00:02.370Z,93.32
2022-10-23T18:02:28.858Z,93.41
2022-10-23T18:04:55.347Z,92.90
2022-10-23T18:07:24.160Z,93.05
2022-10-23T18:09:50.583Z,93.05
2022-10-23T18:12:17.119Z,93.20
2022-10-23T18:14:43.593Z,93.06
2022-10-23T18:17:10.128Z,93.15
2022-10-23T18:19:36.554Z,93.13
2022-10-23T18:22:03.735Z,93.03
2022-10-23T18:24:31.013Z,92.94
2022-10-23T18:26:57.389Z,92.70
2022-10-23T18:29:23.788Z,92.62
2022-10-23T18:31:50.590Z,92.65
2022-10-23T18:34:22.994Z,92.67
2022-10-23T18:36:51.665Z,92.41
2022-10-23T18:39:22.187Z,92.40
2022-10-23T18:41:50.908Z,92.53
2022-10-23T18:44:19.055Z,92.24
2022-10-23T18:46:46.716Z,92.13
2022-10-23T18:49:13.981Z,92.27
2022-10-23T18:51:40.793Z,92.25
2022-10-23T18:54:11.711Z,92.52
2022-10-23T18:56:39.641Z,92.74
2022-10-23T18:59:10.180Z,92.61
2022-10-23T19:01:36.948Z,92.70
2022-10-23T19:04:04.246Z,92.59
2022-10-23T19:06:31.895Z,92.50
2022-10-23T19:08:59.024Z,92.36
2022-10-23T19:11:27.160Z,92.25
2022-10-23T19:13:54.351Z,92.29
2022-10-23T19:16:23.887Z,92.43
2022-10-23T19:18:53.699Z,92.46
2022-10-23T19:21:25.145Z,92.60
2022-10-23T19:23:52.290Z,92.71
2022-10-23T19:26:18.800Z,92.92
2022-10-23T19:28:48.867Z,93.16
2022-10-23T19:31:15.986Z,93.36
2022-10-23T19:33:42.617Z,93.40
2022-10-23T19:36:13.963Z,93.55
2022-10-23T19:38:41.672Z,93.78
2022-10-23T19:41:08.368Z,93.82
2022-10-23T19:43:34.931Z,93.77
2022-10-23T19:46:05.063Z,93.56
2022-10-23T19:48:34.556Z,93.45
2022-10-23T19:51:01.136Z,93.34
2022-10-23T19:53:27.715Z,93.21
2022-10-23T19:56:05.968Z,93.12
2022-10-23T19:58:32.849Z,93.33
2022-10-23T20:01:06.059Z,93.43
2022-10-23T20:03:32.652Z,93.52
2022-10-23T20:05:59.320Z,93.70
2022-10-23T20:08:25.680Z,93.78
2022-10-23T20:10:52.422Z,93.74
2022-10-23T20:13:20.311Z,93.78
2022-10-23T20:15:47.142Z,93.88
2022-10-23T20:18:13.582Z,94.14
2022-10-23T20:20:42.080Z,94.07
2022-10-23T20:23:08.598Z,94.15
2022-10-23T20:25:35.219Z,94.10
2022-10-23T20:28:01.835Z,94.14
2022-10-23T20:30:28.399Z,94.19
2022-10-23T20:32:55.603Z,94.10
2022-10-23T20:35:21.994Z,93.99
2022-10-23T20:37:48.439Z,93.82
2022-10-23T20:40:14.905Z,93.85
2022-10-23T20:42:41.345Z,93.75
2022-10-23T20:45:08.185Z,93.62
2022-10-23T20:47:34.646Z,93.62
2022-10-23T20:50:01.074Z,93.59
2022-10-23T20:52:30.025Z,93.64
2022-10-23T20:54:56.706Z,93.55
2022-10-23T20:57:23.085Z,93.24
2022-10-23T20:59:49.520Z,92.98
2022-10-23T21:02:16.122Z,92.74
2022-10-23T21:04:42.702Z,92.74
2022-10-23T21:07:10.872Z,93.10
2022-10-23T21:09:38.494Z,93.32
2022-10-23T21:12:06.375Z,93.61
2022-10-23T21:14:35.007Z,93.79
2022-10-23T21:17:04.797Z,93.47
2022-10-23T21:19:31.224Z,92.88
2022-10-23T21:21:57.776Z,92.75
2022-10-23T21:24:24.672Z,92.38
2022-10-23T21:26:51.485Z,92.17
2022-10-23T21:29:19.319Z,92.00
2022-10-23T21:31:51.567Z,92.07
2022-10-23T21:34:17.981Z,92.10
2022-10-23T21:37:10.853Z,92.26
2022-10-23T21:39:33.377Z,92.04
2022-10-23T21:41:59.828Z,92.05
2022-10-23T21:44:26.237Z,92.17
2022-10-23T21:46:52.795Z,92.46
2022-10-23T21:49:19.349Z,92.62
2022-10-23T21:51:47.245Z,92.76
2022-10-23T21:54:17.724Z,92.88
2022-10-23T21:56:45.399Z,92.80
2022-10-23T21:59:16.903Z,92.67
2022-10-23T22:01:45.883Z,92.52
2022-10-23T22:04:14.350Z,92.42
2022-10-23T22:06:42.984Z,92.35
2022-10-23T22:09:12.724Z,92.14
2022-10-23T22:11:39.377Z,92.12
2022-10-23T22:14:05.867Z,91.82
2022-10-23T22:16:32.464Z,91.79
2022-10-23T22:18:58.883Z,91.26
2022-10-23T22:21:27.894Z,91.44
2022-10-23T22:23:56.462Z,91.55
2022-10-23T22:26:35.586Z,91.63
2022-10-23T22:29:06.156Z,91.45
2022-10-23T22:31:34.480Z,91.64
2022-10-23T22:34:13.261Z,91.71
2022-10-23T22:36:50.381Z,91.80
2022-10-23T22:39:17.072Z,91.85
2022-10-23T22:41:43.682Z,91.96
2022-10-23T22:44:14.748Z,92.21
2022-10-23T22:46:42.298Z,92.39
2022-10-23T22:49:09.092Z,92.56
2022-10-23T22:51:37.254Z,92.65
2022-10-23T22:54:03.807Z,92.60
2022-10-23T22:56:30.964Z,92.59
2022-10-23T22:58:58.193Z,92.82
2022-10-23T23:01:29.822Z,92.88
2022-10-23T23:04:04.283Z,92.85
2022-10-23T23:06:43.273Z,92.57
2022-10-23T23:09:11.227Z,92.57
2022-10-23T23:11:51.350Z,92.51
2022-10-23T23:14:22.000Z,92.55
2022-10-23T23:16:50.433Z,92.63
2022-10-23T23:19:18.033Z,92.60
2022-10-23T23:21:44.487Z,92.73
2022-10-23T23:24:11.971Z,92.51
2022-10-23T23:26:38.357Z,92.43
2022-10-23T23:29:04.807Z,92.23
2022-10-23T23:31:31.261Z,92.27
2022-10-23T23:33:57.876Z,92.10
2022-10-23T23:36:26.793Z,92.06
2022-10-23T23:38:54.992Z,92.13
2022-10-23T23:41:23.094Z,92.23
2022-10-23T23:43:49.543Z,92.02
2022-10-23T23:46:16.914Z,91.86
2022-10-23T23:48:48.039Z,92.13
2022-10-23T23:51:16.956Z,92.39
2022-10-23T23:53:43.887Z,92.30
2022-10-23T23:56:10.604Z,92.02
